createdAt,value
2018-04-12T00:00:42.651Z,91.46
2018-04-12T00:01:22.869Z,92.13
2018-04-12T00:02:03.282Z,92.6
2018-04-12T00:02:43.691Z,92.69
2018-04-12T00:03:24.088Z,92.22
2018-04-12T00:04:04.508Z,92.6
2018-04-12T00:04:44.909Z,92.5
2018-04-12T00:05:25.346Z,92.13
2018-04-12T00:06:05.759Z,91.84
2018-04-12T00:06:46.223Z,91.94
2018-04-12T00:07:26.606Z,91.84
2018-04-12T00:08:07.003Z,91.84
2018-04-12T00:08:47.396Z,90.79
2018-04-12T00:09:27.813Z,90.89
2018-04-12T00:10:08.202Z,90.7
2018-04-12T00:10:48.627Z,90.98
2018-04-12T00:11:29.066Z,90.6
2018-04-12T00:12:09.432Z,91.08
2018-04-12T00:12:49.823Z,91.17
2018-04-12T00:13:30.247Z,90.7
2018-04-12T00:14:10.620Z,90.98
2018-04-12T00:14:51.005Z,91.27
2018-04-12T00:15:31.439Z,91.36
2018-04-12T00:16:11.852Z,91.08
2018-04-12T00:16:52.225Z,90.98
2018-04-12T00:17:32.692Z,91.08
2018-04-12T00:18:13.032Z,91.65
2018-04-12T00:18:53.479Z,92.03
2018-04-12T00:19:33.848Z,91.94
2018-04-12T00:20:14.252Z,91.94
2018-04-12T00:20:54.720Z,92.41
2018-04-12T00:21:35.088Z,92.5
2018-04-12T00:22:15.497Z,92.41
2018-04-12T00:22:55.894Z,92.6
2018-04-12T00:23:36.309Z,92.89
2018-04-12T00:24:16.761Z,92.5
2018-04-12T00:24:57.123Z,93.08
2018-04-12T00:25:37.511Z,92.79
2018-04-12T00:26:17.924Z,91.65
2018-04-12T00:26:58.361Z,91.65
2018-04-12T00:27:38.748Z,90.89
2018-04-12T00:28:19.153Z,90.22
2018-04-12T00:28:59.567Z,89.75
2018-04-12T00:29:39.949Z,90.22
2018-04-12T00:30:20.414Z,90.56
2018-04-12T00:31:00.782Z,91.27
2018-04-12T00:31:41.193Z,91.08
2018-04-12T00:32:21.633Z,91.36
2018-04-12T00:33:02.012Z,92.03
2018-04-12T00:33:42.431Z,92.69
2018-04-12T00:34:22.787Z,92.69
2018-04-12T00:35:03.209Z,92.79
2018-04-12T00:35:43.614Z,92.41
2018-04-12T00:36:24.028Z,92.79
2018-04-12T00:37:04.455Z,92.6
2018-04-12T00:37:44.855Z,92.6
2018-04-12T00:40:02.471Z,92.6
2018-04-12T00:40:42.915Z,91.22
2018-04-12T00:41:23.338Z,91.79
2018-04-12T00:42:03.751Z,91.27
2018-04-12T00:42:44.123Z,91.13
2018-04-12T00:43:24.516Z,90.65
2018-04-12T00:44:04.907Z,90.08
2018-04-12T00:44:45.298Z,90.27
2018-04-12T00:45:25.711Z,90.36
2018-04-12T00:46:06.131Z,90.56
2018-04-12T00:46:46.496Z,90.36
2018-04-12T00:47:26.909Z,90.84
2018-04-12T00:48:07.303Z,90.75
2018-04-12T00:48:47.729Z,90.65
2018-04-12T00:49:28.119Z,91.13
2018-04-12T00:50:08.475Z,91.13
2018-04-12T00:50:48.880Z,91.22
2018-04-12T00:51:29.279Z,91.31
2018-04-12T00:52:09.678Z,91.79
2018-04-12T00:52:50.068Z,91.7
2018-04-12T00:53:30.502Z,92.46
2018-04-12T00:54:10.883Z,93.13
2018-04-12T00:54:51.280Z,93.51
2018-04-12T00:55:31.679Z,93.7
2018-04-12T00:57:24.321Z,92.27
2018-04-12T00:58:04.633Z,92.18
2018-04-12T00:58:45.057Z,91.89
2018-04-12T00:59:25.476Z,91.79
2018-04-12T01:00:05.881Z,92.08
2018-04-12T01:00:46.279Z,91.94
2018-04-12T01:01:26.677Z,91.75
2018-04-12T01:02:07.072Z,92.18
2018-04-12T01:02:47.486Z,91.75
2018-04-12T01:03:27.903Z,91.75
2018-04-12T01:04:08.310Z,92.03
2018-04-12T01:04:48.729Z,91.75
2018-04-12T01:05:29.207Z,92.51
2018-04-12T01:06:09.574Z,92.32
2018-04-12T01:06:49.992Z,92.7
2018-04-12T01:07:30.414Z,92.99
2018-04-12T01:08:10.776Z,92.79
2018-04-12T01:08:51.176Z,92.99
2018-04-12T01:09:31.556Z,92.89
2018-04-12T01:10:11.969Z,93.18
2018-04-12T01:10:52.400Z,93.55
2018-04-12T01:11:32.798Z,92.99
2018-04-12T01:12:13.149Z,93.08
2018-04-12T01:12:53.558Z,93.65
2018-04-12T01:13:33.975Z,93.65
2018-04-12T01:14:14.395Z,93.46
2018-04-12T01:14:54.724Z,92.89
2018-04-12T01:15:35.129Z,92.89
2018-04-12T01:16:15.543Z,92.99
2018-04-12T01:16:55.939Z,92.79
2018-04-12T01:17:36.333Z,93.55
2018-04-12T01:18:16.745Z,93.65
2018-04-12T01:18:57.131Z,94.51
2018-04-12T01:19:37.506Z,94.03
2018-04-12T01:20:17.944Z,94.13
2018-04-12T01:20:58.319Z,94.13
2018-04-12T01:21:38.711Z,93.74
2018-04-12T01:22:19.115Z,94.42
2018-04-12T01:22:59.549Z,94.79
2018-04-12T01:23:39.887Z,94.51
2018-04-12T01:24:20.331Z,94.42
2018-04-12T01:25:00.711Z,94.51
2018-04-12T01:25:41.096Z,93.74
2018-04-12T01:26:21.478Z,93.94
2018-04-12T01:27:01.903Z,93.55
2018-04-12T01:27:42.300Z,93.37
2018-04-12T01:28:22.692Z,93.55
2018-04-12T01:29:03.092Z,93.18
2018-04-12T01:29:43.538Z,93.27
2018-04-12T01:30:23.925Z,91.94
2018-04-12T01:31:04.318Z,91.75
2018-04-12T01:31:44.702Z,91.65
2018-04-12T01:32:25.109Z,91.65
2018-04-12T01:33:05.506Z,91.27
2018-04-12T01:33:45.927Z,91.17
2018-04-12T01:34:26.330Z,91.46
2018-04-12T01:35:06.729Z,91.75
2018-04-12T01:35:47.135Z,91.65
2018-04-12T01:36:27.522Z,91.84
2018-04-12T01:37:07.927Z,92.03
2018-04-12T01:37:48.316Z,92.41
2018-04-12T01:38:28.734Z,93.27
2018-04-12T01:39:09.110Z,93.74
2018-04-12T01:39:49.483Z,93.6
2018-04-12T01:40:29.966Z,93.13
2018-04-12T01:41:10.302Z,92.84
2018-04-12T01:41:50.710Z,91.79
2018-04-12T01:42:31.104Z,90.17
2018-04-12T01:43:11.499Z,89.13
2018-04-12T01:43:51.901Z,88.84
2018-04-12T01:44:32.328Z,88.08
2018-04-12T01:45:12.719Z,87.98
2018-04-12T01:45:53.157Z,87.65
2018-04-12T01:46:33.589Z,87.94
2018-04-12T01:47:14.060Z,88.89
2018-04-12T01:47:54.422Z,88.89
2018-04-12T01:48:34.830Z,88.6
2018-04-12T01:49:15.203Z,88.32
2018-04-12T01:49:55.620Z,88.7
2018-04-12T01:50:36.000Z,88.6
2018-04-12T01:51:16.408Z,89.08
2018-04-12T01:51:56.820Z,90.13
2018-04-12T01:52:37.227Z,90.32
2018-04-12T01:53:17.638Z,89.84
2018-04-12T01:53:58.040Z,89.94
2018-04-12T01:54:38.447Z,90.47
2018-04-12T01:55:18.866Z,90.75
2018-04-12T01:55:59.275Z,90.66
2018-04-12T01:56:39.706Z,90.28
2018-04-12T01:57:20.099Z,90.28
2018-04-12T01:58:00.489Z,90.47
2018-04-12T01:58:40.908Z,90.37
2018-04-12T01:59:21.342Z,89.89
2018-04-12T02:00:01.719Z,90.37
2018-04-12T02:00:42.142Z,90.94
2018-04-12T02:01:22.540Z,90.75
2018-04-12T02:02:02.956Z,90.47
2018-04-12T02:04:15.577Z,91.61
2018-04-12T02:04:56.188Z,91.7
2018-04-12T02:05:36.616Z,91.99
2018-04-12T02:06:16.999Z,91.51
2018-04-12T02:06:57.378Z,91.7
2018-04-12T02:07:37.779Z,91.8
2018-04-12T02:08:18.172Z,91.8
2018-04-12T02:08:58.557Z,91.22
2018-04-12T02:09:38.968Z,91.42
2018-04-12T02:10:19.427Z,90.66
2018-04-12T02:10:59.764Z,90.94
2018-04-12T02:11:40.185Z,90.75
2018-04-12T02:12:20.576Z,91.7
2018-04-12T02:13:00.971Z,91.61
2018-04-12T02:13:41.360Z,91.32
2018-04-12T02:14:21.819Z,90.75
2018-04-12T02:15:02.138Z,91.03
2018-04-12T02:16:49.839Z,90.89
2018-04-12T02:17:30.134Z,91.03
2018-04-12T02:18:10.546Z,91.18
2018-04-12T02:18:50.906Z,91.75
2018-04-12T02:19:31.289Z,91.18
2018-04-12T02:20:11.694Z,91.66
2018-04-12T02:20:52.101Z,91.08
2018-04-12T02:21:32.499Z,91.08
2018-04-12T02:22:12.938Z,91.37
2018-04-12T02:22:53.286Z,90.99
2018-04-12T02:23:33.671Z,91.18
2018-04-12T02:24:14.102Z,92.13
2018-04-12T02:24:54.482Z,92.22
2018-04-12T02:25:34.858Z,92.03
2018-04-12T02:26:15.244Z,92.41
2018-04-12T02:26:55.658Z,92.41
2018-04-12T02:27:36.102Z,92.85
2018-04-12T02:28:16.448Z,92.89
2018-04-12T02:28:56.875Z,93.04
2018-04-12T02:29:37.241Z,92.85
2018-04-12T02:30:17.626Z,93.13
2018-04-12T02:30:58.025Z,93.13
2018-04-12T02:31:38.432Z,93.51
2018-04-12T02:32:18.828Z,93.13
2018-04-12T02:32:59.237Z,93.04
2018-04-12T02:33:39.646Z,93.51
2018-04-12T02:34:20.051Z,93.41
2018-04-12T02:35:00.467Z,93.6
2018-04-12T02:35:40.866Z,93.7
2018-04-12T02:36:21.265Z,93.6
2018-04-12T02:37:01.683Z,94.08
2018-04-12T02:37:42.111Z,95.32
2018-04-12T02:38:22.472Z,94.93
2018-04-12T02:39:02.903Z,94.46
2018-04-12T02:39:43.327Z,94.56
2018-04-12T02:40:23.731Z,94.18
2018-04-12T02:41:04.128Z,93.89
2018-04-12T02:41:44.560Z,93.79
2018-04-12T02:42:24.950Z,93.7
2018-04-12T02:43:05.324Z,93.79
2018-04-12T02:43:45.728Z,93.79
2018-04-12T02:44:26.135Z,94.27
2018-04-12T02:45:06.542Z,95.22
2018-04-12T02:45:46.986Z,95.12
2018-04-12T02:46:27.329Z,95.41
2018-04-12T02:47:07.754Z,95.32
2018-04-12T02:47:48.178Z,94.65
2018-04-12T02:48:28.568Z,94.08
2018-04-12T02:49:08.985Z,93.7
2018-04-12T02:49:49.423Z,93.99
2018-04-12T02:50:29.766Z,94.93
2018-04-12T02:51:10.180Z,94.46
2018-04-12T02:51:50.608Z,95.27
2018-04-12T02:52:31.017Z,96.31
2018-04-12T02:53:11.402Z,97.27
2018-04-12T02:53:51.795Z,96.69
2018-04-12T02:54:32.198Z,95.65
2018-04-12T02:56:19.698Z,94.42
2018-04-12T02:56:59.976Z,93.65
2018-04-12T02:57:40.412Z,93.27
2018-04-12T02:58:20.808Z,93.84
2018-04-12T02:59:01.237Z,93.55
2018-04-12T02:59:41.627Z,93.94
2018-04-12T03:00:22.043Z,93.55
2018-04-12T03:01:02.535Z,92.51
2018-04-12T03:01:42.916Z,92.89
2018-04-12T03:02:23.354Z,92.8
2018-04-12T03:03:03.747Z,92.22
2018-04-12T03:03:44.149Z,92.7
2018-04-12T03:04:24.559Z,92.22
2018-04-12T03:05:04.923Z,92.89
2018-04-12T03:05:45.303Z,93.08
2018-04-12T03:06:25.690Z,92.99
2018-04-12T03:07:06.159Z,93.08
2018-04-12T03:07:46.521Z,92.7
2018-04-12T03:08:26.951Z,92.89
2018-04-12T03:09:07.363Z,93.08
2018-04-12T03:09:47.773Z,93.08
2018-04-12T03:10:28.212Z,92.8
2018-04-12T03:11:08.546Z,93.18
2018-04-12T03:11:48.987Z,92.41
2018-04-12T03:12:29.375Z,92.85
2018-04-12T03:13:09.792Z,93.6
2018-04-12T03:13:50.186Z,92.89
2018-04-12T03:14:30.632Z,93.41
2018-04-12T03:15:11.024Z,92.94
2018-04-12T03:15:51.427Z,93.04
2018-04-12T03:16:31.836Z,92.85
2018-04-12T03:17:12.203Z,92.66
2018-04-12T03:18:59.546Z,93.04
2018-04-12T03:19:39.940Z,93.84
2018-04-12T03:20:20.356Z,93.6
2018-04-12T03:21:00.770Z,93.89
2018-04-12T03:21:41.187Z,93.6
2018-04-12T03:22:21.605Z,93.51
2018-04-12T03:23:02.031Z,93.6
2018-04-12T03:23:42.409Z,93.7
2018-04-12T03:24:22.812Z,93.79
2018-04-12T03:25:03.190Z,94.46
2018-04-12T03:25:43.586Z,94.46
2018-04-12T03:26:23.964Z,94.74
2018-04-12T03:27:04.358Z,94.37
2018-04-12T03:27:44.739Z,94.27
2018-04-12T03:28:25.154Z,94.18
2018-04-12T03:29:05.589Z,94.65
2018-04-12T03:29:46.059Z,93.79
2018-04-12T03:30:26.422Z,94.18
2018-04-12T03:31:06.814Z,94.37
2018-04-12T03:31:47.236Z,94.46
2018-04-12T03:32:27.643Z,94.56
2018-04-12T03:33:08.085Z,94.56
2018-04-12T03:33:48.467Z,94.84
2018-04-12T03:34:28.885Z,94.93
2018-04-12T03:35:09.309Z,94.56
2018-04-12T03:35:49.746Z,95.12
2018-04-12T03:36:30.174Z,95.12
2018-04-12T03:37:10.592Z,94.65
2018-04-12T03:37:51.008Z,95.12
2018-04-12T03:38:31.421Z,95.32
2018-04-12T03:39:11.858Z,94.93
2018-04-12T03:39:52.250Z,94.65
2018-04-12T03:40:32.663Z,94.65
2018-04-12T03:41:13.074Z,94.93
2018-04-12T03:41:53.508Z,95.03
2018-04-12T03:42:33.989Z,95.6
2018-04-12T03:43:14.383Z,94.93
2018-04-12T03:43:54.736Z,95.32
2018-04-12T03:44:35.165Z,95.79
2018-04-12T03:45:15.581Z,96.65
2018-04-12T03:45:56.012Z,96.26
2018-04-12T03:46:36.440Z,96.36
2018-04-12T03:47:16.858Z,96.65
2018-04-12T03:49:14.475Z,95.51
2018-04-12T03:49:54.694Z,95.79
2018-04-12T03:50:35.142Z,95.51
2018-04-12T03:51:15.517Z,95.12
2018-04-12T03:51:55.925Z,94.74
2018-04-12T03:52:36.324Z,95.03
2018-04-12T03:53:16.731Z,95.22
2018-04-12T03:53:57.146Z,95.22
2018-04-12T03:54:37.547Z,95.41
2018-04-12T03:55:17.965Z,95.7
2018-04-12T03:55:58.376Z,95.22
2018-04-12T03:56:38.801Z,95.51
2018-04-12T03:57:19.221Z,95.51
2018-04-12T03:57:59.662Z,95.7
2018-04-12T03:58:40.095Z,95.51
2018-04-12T03:59:20.510Z,95.89
2018-04-12T04:00:00.942Z,95.89
2018-04-12T04:00:41.382Z,95.51
2018-04-12T04:01:21.811Z,95.98
2018-04-12T04:02:02.226Z,95.79
2018-04-12T04:41:33.569Z,99.99
2018-04-12T04:42:14.267Z,99.99
2018-04-12T04:42:54.701Z,99.99
2018-04-12T04:43:35.137Z,99.99
2018-04-12T04:44:15.566Z,99.99
2018-04-12T04:44:55.982Z,99.99
2018-04-12T04:45:36.416Z,99.99
2018-04-12T04:46:16.820Z,99.99
2018-04-12T04:46:57.214Z,99.99
2018-04-12T04:47:37.667Z,99.99
2018-04-12T04:48:18.108Z,99.99
2018-04-12T04:48:58.493Z,99.99
2018-04-12T04:49:38.889Z,99.69
2018-04-12T04:50:19.288Z,98.36
2018-04-12T04:50:59.708Z,97.78
2018-04-12T04:51:40.104Z,97.03
2018-04-12T04:52:20.504Z,97.17
2018-04-12T04:53:00.963Z,96.5
2018-04-12T04:53:41.328Z,96.31
2018-04-12T04:54:21.696Z,96.41
2018-04-12T04:55:02.107Z,96.41
2018-04-12T04:55:42.508Z,96.12
2018-04-12T04:56:22.910Z,96.41
2018-04-12T04:57:03.278Z,97.07
2018-04-12T04:57:43.671Z,96.98
2018-04-12T04:58:24.074Z,97.36
2018-04-12T04:59:04.545Z,97.07
2018-04-12T04:59:44.918Z,97.45
2018-04-12T05:00:25.344Z,97.92
2018-04-12T05:01:05.744Z,97.88
2018-04-12T05:01:46.158Z,97.88
2018-04-12T05:02:26.559Z,97.5
2018-04-12T05:03:06.933Z,97.5
2018-04-12T05:03:47.322Z,97.03
2018-04-12T05:04:27.828Z,97.31
2018-04-12T05:05:08.160Z,96.84
2018-04-12T05:05:48.636Z,97.03
2018-04-12T05:06:28.973Z,96.93
2018-04-12T05:08:26.962Z,97.41
2018-04-12T05:09:07.335Z,96.45
2018-04-12T05:09:47.799Z,96.12
2018-04-12T05:10:28.149Z,96.26
2018-04-12T05:11:08.614Z,96.36
2018-04-12T05:11:49.102Z,96.17
2018-04-12T05:12:29.487Z,96.55
2018-04-12T05:13:09.966Z,97.22
2018-04-12T05:13:50.354Z,97.5
2018-04-12T05:14:30.734Z,97.41
2018-04-12T05:15:11.124Z,97.69
2018-04-12T05:15:51.535Z,98.64
2018-04-12T05:16:31.952Z,99.4
2018-04-12T05:17:12.474Z,98.83
2018-04-12T05:17:52.873Z,98.83
2018-04-12T05:18:33.289Z,98.22
2018-04-12T05:19:13.734Z,97.93
2018-04-12T05:19:54.115Z,97.17
2018-04-12T05:20:34.594Z,97.17
2018-04-12T05:21:15.039Z,97.17
2018-04-12T05:21:55.444Z,96.03
2018-04-12T05:22:35.879Z,96.41
2018-04-12T05:23:16.291Z,96.22
2018-04-12T05:23:56.660Z,95.75
2018-04-12T05:24:37.132Z,95.12
2018-04-12T05:25:17.486Z,95.17
2018-04-12T05:25:57.874Z,93.89
2018-04-12T05:26:38.281Z,93.7
2018-04-12T05:27:18.704Z,92.27
2018-04-12T05:28:07.743Z,92.36
2018-04-12T05:29:04.927Z,91.89
2018-04-12T05:29:45.342Z,90.84
2018-04-12T05:30:35.053Z,90.8
2018-04-12T05:31:15.489Z,90.33
2018-04-12T05:31:56.155Z,90.18
2018-04-12T05:32:36.582Z,90.14
2018-04-12T05:33:31.930Z,90.42
2018-04-12T05:34:12.378Z,90.33
2018-04-12T05:34:52.710Z,90.99
2018-04-12T05:35:33.186Z,91.37
2018-04-12T05:36:13.492Z,92.41
2018-04-12T05:36:53.911Z,92.89
2018-04-12T05:37:34.462Z,93.84
2018-04-12T05:38:14.775Z,94.08
2018-04-12T05:38:55.200Z,93.98
2018-04-12T05:39:36.290Z,93.98
2018-04-12T05:40:16.675Z,93.41
2018-04-12T05:40:57.167Z,92.94
2018-04-12T05:41:52.370Z,92.36
2018-04-12T05:42:32.754Z,92.08
2018-04-12T05:43:27.988Z,91.61
2018-04-12T05:46:22.795Z,89.23
2018-04-12T05:47:17.829Z,89.32
2018-04-12T05:47:58.563Z,89.32
2018-04-12T05:48:39.103Z,89.14
2018-04-12T05:49:19.535Z,90.08
2018-04-12T05:49:59.943Z,89.7
2018-04-12T05:50:40.322Z,90.47
2018-04-12T05:51:20.763Z,90.56
2018-04-12T05:52:08.019Z,90.75
2018-04-12T05:52:48.776Z,90.37
2018-04-12T05:53:29.037Z,90.56
2018-04-12T05:54:09.415Z,91.13
2018-04-12T05:54:50.035Z,90.66
2018-04-12T05:55:30.460Z,90.84
2018-04-12T05:56:12.262Z,91.32
2018-04-12T05:56:53.009Z,91.89
2018-04-12T05:57:32.954Z,91.99
2018-04-12T05:58:13.434Z,91.89
2018-04-12T05:58:53.807Z,91.89
2018-04-12T05:59:34.227Z,92.65
2018-04-12T06:00:14.636Z,93.23
2018-04-12T06:00:55.018Z,93.13
2018-04-12T06:01:35.409Z,93.32
2018-04-12T06:02:15.860Z,93.04
2018-04-12T06:02:56.201Z,93.7
2018-04-12T06:03:36.608Z,93.23
2018-04-12T06:04:17.027Z,93.13
2018-04-12T06:04:57.422Z,92.84
2018-04-12T06:05:37.804Z,93.32
2018-04-12T06:06:18.240Z,92.56
2018-04-12T06:06:58.638Z,92.18
2018-04-12T06:07:39.088Z,92.46
2018-04-12T06:08:19.463Z,92.99
2018-04-12T06:09:00.008Z,92.89
2018-04-12T06:09:40.298Z,93.18
2018-04-12T06:10:21.550Z,92.79
2018-04-12T06:11:01.402Z,91.75
2018-04-12T06:11:41.830Z,91.56
2018-04-12T06:12:22.170Z,90.99
2018-04-12T06:13:02.599Z,91.27
2018-04-12T06:13:43.003Z,91.17
2018-04-12T06:14:23.417Z,91.08
2018-04-12T06:15:03.851Z,90.13
2018-04-12T06:15:44.278Z,90.8
2018-04-12T06:16:24.624Z,90.32
2018-04-12T06:17:05.048Z,90.22
2018-04-12T06:17:45.405Z,90.8
2018-04-12T06:18:25.797Z,90.8
2018-04-12T06:19:06.230Z,90.61
2018-04-12T06:19:46.668Z,90.7
2018-04-12T06:20:27.153Z,91.56
2018-04-12T06:21:07.478Z,91.89
2018-04-12T06:21:47.862Z,91.22
2018-04-12T06:22:28.230Z,90.56
2018-04-12T06:23:08.674Z,90.94
2018-04-12T06:23:49.075Z,91.22
2018-04-12T06:24:29.513Z,90.84
2018-04-12T06:25:09.954Z,91.22
2018-04-12T06:25:50.361Z,90.75
2018-04-12T06:26:30.823Z,91.22
2018-04-12T06:27:11.256Z,91.7
2018-04-12T06:27:51.602Z,91.6
2018-04-12T06:28:32.102Z,91.79
2018-04-12T06:29:12.438Z,91.51
2018-04-12T06:29:53.105Z,91.22
2018-04-12T06:30:33.530Z,91.03
2018-04-12T06:31:14.002Z,90.17
2018-04-12T06:31:54.769Z,90.27
2018-04-12T06:32:35.162Z,90.36
2018-04-12T06:33:15.560Z,90.08
2018-04-12T06:33:55.956Z,90.12
2018-04-12T06:34:36.363Z,90.12
2018-04-12T06:35:16.802Z,89.46
2018-04-12T06:35:57.191Z,88.89
2018-04-12T06:36:37.567Z,89.65
2018-04-12T06:37:18.006Z,89.65
2018-04-12T06:37:58.571Z,89.46
2018-04-12T06:38:39.110Z,88.98
2018-04-12T06:39:19.480Z,88.41
2018-04-12T06:39:59.938Z,88.7
2018-04-12T06:40:40.347Z,88.03
2018-04-12T06:41:20.733Z,87.84
2018-04-12T06:42:01.160Z,87.46
2018-04-12T06:42:41.499Z,87.55
2018-04-12T06:43:21.909Z,87.17
2018-04-12T06:44:02.580Z,86.88
2018-04-12T06:44:42.956Z,86.51
2018-04-12T06:45:23.342Z,87.36
2018-04-12T06:46:18.677Z,86.79
2018-04-12T06:46:59.126Z,87.36
2018-04-12T06:47:39.559Z,88.12
2018-04-12T06:48:20.101Z,88.51
2018-04-12T06:49:00.547Z,88.79
2018-04-12T06:49:41.104Z,88.89
2018-04-12T06:50:21.446Z,89.26
2018-04-12T06:51:01.850Z,90.22
2018-04-12T06:51:42.228Z,90.22
2018-04-12T06:52:22.830Z,90.89
2018-04-12T06:53:04.187Z,90.79
2018-04-12T06:53:44.625Z,90.6
2018-04-12T06:54:25.126Z,90.22
2018-04-12T06:55:05.463Z,90.41
2018-04-12T06:55:45.830Z,90.55
2018-04-12T06:56:26.345Z,89.65
2018-04-12T06:57:06.809Z,89.46
2018-04-12T06:57:47.178Z,89.46
2018-04-12T06:58:27.621Z,89.55
2018-04-12T06:59:08.197Z,89.55
2018-04-12T06:59:48.716Z,89.36
2018-04-12T07:00:29.119Z,89.17
2018-04-12T07:01:09.530Z,89.55
2018-04-12T07:01:49.951Z,90.03
2018-04-12T07:02:30.337Z,90.22
2018-04-12T07:03:10.747Z,90.5
2018-04-12T07:03:51.186Z,89.84
2018-04-12T07:04:31.585Z,89.65
2018-04-12T07:05:11.944Z,90.36
2018-04-12T07:05:54.565Z,90.45
2018-04-12T07:06:35.156Z,89.89
2018-04-12T07:07:15.382Z,90.26
2018-04-12T07:07:55.780Z,90.45
2018-04-12T07:08:36.172Z,90.26
2018-04-12T07:09:16.641Z,90.26
2018-04-12T07:09:57.030Z,89.5
2018-04-12T07:10:37.409Z,89.22
2018-04-12T07:11:17.830Z,89.22
2018-04-12T07:11:58.265Z,89.5
2018-04-12T07:12:38.766Z,88.55
2018-04-12T07:13:33.035Z,88.64
2018-04-12T07:17:19.417Z,88.78
2018-04-12T07:17:59.503Z,88.78
2018-04-12T07:18:39.898Z,88.12
2018-04-12T07:19:20.298Z,88.12
2018-04-12T07:20:00.723Z,87.83
2018-04-12T07:20:41.125Z,87.4
2018-04-12T07:21:21.614Z,88.02
2018-04-12T07:22:02.071Z,87.11
2018-04-12T07:22:42.436Z,87.3
2018-04-12T07:23:22.846Z,87.3
2018-04-12T07:24:03.288Z,87.07
2018-04-12T07:24:43.630Z,86.92
2018-04-12T07:25:24.077Z,87.26
2018-04-12T07:26:04.522Z,86.88
2018-04-12T07:26:45.097Z,86.82
2018-04-12T07:27:25.565Z,87.3
2018-04-12T07:28:06.056Z,87.3
2018-04-12T07:28:46.530Z,87.21
2018-04-12T07:29:27.269Z,87.02
2018-04-12T07:30:07.686Z,87.4
2018-04-12T07:30:48.171Z,87.21
2018-04-12T07:31:28.595Z,87.11
2018-04-12T07:32:09.118Z,87.21
2018-04-12T07:32:49.479Z,87.11
2018-04-12T07:33:29.878Z,87.21
2018-04-12T07:34:10.436Z,86.82
2018-04-12T07:34:50.716Z,87.11
2018-04-12T07:35:31.154Z,87.02
2018-04-12T07:36:11.505Z,87.21
2018-04-12T07:36:51.976Z,87.21
2018-04-12T07:37:32.331Z,87.11
2018-04-12T07:38:12.735Z,86.92
2018-04-12T07:38:53.239Z,86.82
2018-04-12T07:39:35.098Z,86.44
2018-04-12T07:40:15.582Z,87.3
2018-04-12T07:40:55.946Z,87.35
2018-04-12T07:41:36.312Z,86.82
2018-04-12T07:42:16.808Z,87.06
2018-04-12T07:42:57.221Z,86.96
2018-04-12T07:43:37.700Z,86.77
2018-04-12T07:44:18.028Z,87.25
2018-04-12T07:44:58.551Z,87.25
2018-04-12T07:45:38.884Z,87.44
2018-04-12T07:47:36.375Z,86.39
2018-04-12T07:48:16.686Z,86.39
2018-04-12T07:48:57.135Z,86.01
2018-04-12T07:49:37.537Z,86.43
2018-04-12T07:50:18.044Z,86.2
2018-04-12T07:50:58.336Z,86.2
2018-04-12T07:51:38.738Z,86.72
2018-04-12T07:52:19.152Z,86.24
2018-04-12T07:52:59.552Z,86.34
2018-04-12T07:53:39.965Z,86.34
2018-04-12T07:54:20.358Z,86.72
2018-04-12T07:56:36.569Z,86.15
2018-04-12T07:57:17.134Z,86.34
2018-04-12T07:57:57.670Z,86.15
2018-04-12T07:58:38.336Z,86.34
2018-04-12T08:01:01.101Z,86.29
2018-04-12T08:01:40.222Z,85.9
2018-04-12T08:02:20.819Z,85.9
2018-04-12T08:03:02.227Z,85.33
2018-04-12T08:03:42.564Z,85.14
2018-04-12T08:04:22.851Z,85.14
2018-04-12T08:05:03.512Z,85.05
2018-04-12T08:05:43.859Z,84.76
2018-04-12T08:06:24.807Z,84.7
2018-04-12T08:07:05.327Z,84.61
2018-04-12T08:07:45.787Z,84.13
2018-04-12T08:08:27.376Z,84.32
2018-04-12T08:09:08.297Z,84.32
2018-04-12T08:09:48.415Z,84.32
2018-04-12T08:10:28.852Z,83.46
2018-04-12T08:11:09.366Z,83.37
2018-04-12T08:11:49.817Z,83.84
2018-04-12T08:12:30.238Z,83.37
2018-04-12T08:13:10.601Z,83.27
2018-04-12T08:13:51.032Z,82.6
2018-04-12T08:14:31.486Z,82.45
2018-04-12T08:15:11.809Z,82.93
2018-04-12T08:15:52.219Z,82.64
2018-04-12T08:16:32.631Z,83.31
2018-04-12T08:17:13.104Z,83.22
2018-04-12T08:17:53.430Z,82.93
2018-04-12T08:18:33.854Z,83.31
2018-04-12T08:19:14.372Z,81.88
2018-04-12T08:19:54.669Z,81.02
2018-04-12T08:20:35.157Z,81.25
2018-04-12T08:21:15.486Z,82.11
2018-04-12T08:21:55.940Z,81.73
2018-04-12T08:22:36.409Z,81.63
2018-04-12T08:23:16.796Z,81.34
2018-04-12T08:23:57.266Z,81.34
2018-04-12T08:24:37.704Z,81.63
2018-04-12T08:25:18.109Z,81.73
2018-04-12T08:25:58.517Z,80.77
2018-04-12T08:26:38.948Z,80.67
2018-04-12T08:27:19.412Z,80.87
2018-04-12T08:27:59.747Z,80.48
2018-04-12T08:28:40.115Z,80.62
2018-04-12T08:29:20.521Z,79.85
2018-04-12T08:30:01.041Z,78.8
2018-04-12T08:30:41.487Z,79.18
2018-04-12T08:31:22.073Z,79.08
2018-04-12T08:32:02.407Z,78.99
2018-04-12T08:32:42.846Z,79.28
2018-04-12T08:33:23.213Z,78.89
2018-04-12T08:34:03.771Z,78.89
2018-04-12T08:34:44.342Z,78.8
2018-04-12T08:35:24.822Z,78.74
2018-04-12T08:36:05.464Z,78.93
2018-04-12T08:36:46.501Z,78.45
2018-04-12T08:37:27.454Z,78.84
2018-04-12T08:38:07.974Z,78.45
2018-04-12T08:38:48.661Z,79.03
2018-04-12T08:39:29.111Z,78.84
2018-04-12T08:40:10.862Z,78.55
2018-04-12T08:40:52.077Z,78.55
2018-04-12T08:41:32.938Z,79.22
2018-04-12T08:42:12.704Z,78.36
2018-04-12T08:42:54.215Z,78.07
2018-04-12T08:43:34.163Z,77.82
2018-04-12T08:44:14.810Z,76.77
2018-04-12T08:44:55.237Z,76.92
2018-04-12T08:45:35.610Z,76.57
2018-04-12T08:46:16.040Z,77.53
2018-04-12T08:46:56.447Z,77.44
2018-04-12T08:47:36.851Z,76.86
2018-04-12T08:48:17.312Z,77.06
2018-04-12T08:48:57.736Z,77.25
2018-04-12T08:49:38.109Z,77.44
2018-04-12T08:50:18.638Z,77.25
2018-04-12T08:50:59.025Z,77.44
2018-04-12T08:51:39.438Z,76.96
2018-04-12T08:52:19.864Z,76.96
2018-04-12T08:53:00.238Z,76.86
2018-04-12T08:53:40.695Z,76.9
2018-04-12T08:54:21.204Z,75.95
2018-04-12T08:55:01.490Z,75.56
2018-04-12T08:55:42.080Z,75.65
2018-04-12T08:56:25.946Z,75.08
2018-04-12T08:57:06.373Z,74.26
2018-04-12T08:57:46.789Z,74.73
2018-04-12T08:58:27.356Z,75.02
2018-04-12T08:59:08.975Z,73.77
2018-04-12T08:59:49.414Z,75.02
2018-04-12T09:00:29.954Z,75.12
2018-04-12T09:01:10.822Z,74.87
2018-04-12T09:01:53.991Z,73.62
2018-04-12T09:02:35.025Z,73.81
2018-04-12T09:03:15.498Z,73.72
2018-04-12T09:03:56.395Z,73.27
2018-04-12T09:04:38.578Z,72.79
2018-04-12T09:05:19.153Z,71.93
2018-04-12T09:05:59.585Z,72.12
2018-04-12T09:06:43.257Z,71.64
2018-04-12T09:07:22.549Z,70.68
2018-04-12T09:08:02.922Z,70.23
2018-04-12T09:08:44.434Z,70.9
2018-04-12T09:09:26.357Z,70.81
2018-04-12T09:10:07.733Z,70.81
2018-04-12T09:10:48.239Z,69.95
2018-04-12T09:11:28.680Z,69.56
2018-04-12T09:12:09.173Z,68.54
2018-04-12T09:12:49.681Z,68.35
2018-04-12T09:13:30.045Z,69.5
2018-04-12T09:14:10.417Z,68.92
2018-04-12T09:14:50.850Z,68.83
2018-04-12T09:15:31.491Z,68.44
2018-04-12T09:16:13.379Z,68.57
2018-04-12T09:16:53.832Z,67.22
2018-04-12T09:17:34.363Z,66.74
2018-04-12T09:18:14.812Z,66.27
2018-04-12T09:18:56.391Z,67.61
2018-04-12T09:19:36.311Z,66.74
2018-04-12T09:20:16.805Z,67.42
2018-04-12T09:20:57.331Z,65.97
2018-04-12T09:21:37.752Z,65.88
2018-04-12T09:22:18.375Z,65.78
2018-04-12T09:22:59.265Z,65.24
2018-04-12T09:23:39.715Z,64.18
2018-04-12T09:24:20.241Z,65.53
2018-04-12T09:25:00.756Z,65.63
2018-04-12T09:25:41.329Z,65.33
2018-04-12T09:26:21.981Z,63.99
2018-04-12T09:27:02.189Z,62.45
2018-04-12T09:27:42.657Z,62.74
2018-04-12T09:28:23.002Z,61.68
2018-04-12T09:29:03.447Z,62.16
2018-04-12T09:29:44.645Z,61.68
2018-04-12T09:30:25.503Z,62.16
2018-04-12T09:31:06.452Z,62.45
2018-04-12T09:31:47.485Z,62.26
2018-04-12T09:32:27.826Z,62.77
2018-04-12T09:33:08.456Z,63.15
2018-04-12T09:33:49.028Z,62.96
2018-04-12T09:34:29.620Z,62.48
2018-04-12T09:35:10.181Z,61.13
2018-04-12T09:35:50.585Z,61.32
2018-04-12T09:36:31.586Z,61.61
2018-04-12T09:37:12.635Z,61.8
2018-04-12T09:37:52.981Z,62.57
2018-04-12T09:38:33.402Z,61.61
2018-04-12T09:39:13.813Z,60.36
2018-04-12T09:39:54.261Z,60.07
2018-04-12T09:40:34.765Z,60.68
2018-04-12T09:41:16.521Z,61.65
2018-04-12T09:41:57.335Z,62.32
2018-04-12T09:42:38.017Z,62.03
2018-04-12T09:43:18.194Z,62.6
2018-04-12T09:43:58.702Z,61.45
2018-04-12T09:44:39.025Z,62.51